Time;durP1;ratioP1;P1;durP2;ratioP2;P2;SDS_P1;SDS_P2;PMS_P1;PMS_P2;Temp;Humidity;BMP_temperature;BMP_pressure;BME280_temperature;BME280_humidity;BME280_pressure;Samples;Min_cycle;Max_cycle;Signal;HPM_P1;HPM_P2
2021/07/03 00:01:56;;;;;;;9.73;3.95;;;;;;;17.21;100.00;99850.02;1695566;83;20987;-40
2021/07/03 00:04:22;;;;;;;7.78;4.10;;;;;;;17.16;100.00;99853.36;1686306;84;21041;-40
2021/07/03 00:06:50;;;;;;;10.03;4.12;;;;;;;17.12;100.00;99849.23;1692833;83;21016;-40
2021/07/03 00:09:17;;;;;;;10.78;3.92;;;;;;;17.08;100.00;99854.27;1695327;82;21123;-40
2021/07/03 00:11:47;;;;;;;13.48;5.12;;;;;;;17.04;100.00;99848.80;1691114;83;21092;-39
2021/07/03 00:14:14;;;;;;;14.73;5.22;;;;;;;16.99;100.00;99855.61;1688430;85;20945;-39
2021/07/03 00:16:42;;;;;;;9.30;4.17;;;;;;;16.97;100.00;99853.52;1687829;83;20946;-39
2021/07/03 00:19:09;;;;;;;9.93;3.98;;;;;;;16.94;100.00;99855.82;1686983;83;20915;-40
2021/07/03 00:21:37;;;;;;;13.90;4.47;;;;;;;16.92;100.00;99844.61;1636756;86;21164;-40
2021/07/03 00:24:05;;;;;;;6.70;4.05;;;;;;;16.91;100.00;99844.23;1633554;84;21539;-40
2021/07/03 00:26:32;;;;;;;8.55;4.55;;;;;;;16.87;100.00;99847.94;1664371;84;21319;-40
2021/07/03 00:28:58;;;;;;;14.23;4.78;;;;;;;16.85;100.00;99845.02;1655019;85;21332;-40
2021/07/03 00:31:24;;;;;;;12.60;4.25;;;;;;;16.83;100.00;99846.42;1723195;82;20877;-40
2021/07/03 00:33:51;;;;;;;12.35;4.72;;;;;;;16.79;100.00;99845.73;1715292;81;21151;-41
2021/07/03 00:36:18;;;;;;;10.85;4.28;;;;;;;16.79;100.00;99854.02;1739772;81;20988;-40
2021/07/03 00:38:45;;;;;;;8.85;4.75;;;;;;;16.80;100.00;99858.36;1726418;82;20909;-40
2021/07/03 00:41:12;;;;;;;14.25;4.85;;;;;;;16.81;100.00;99858.25;1722620;81;22788;-40
2021/07/03 00:43:39;;;;;;;13.53;4.20;;;;;;;16.86;100.00;99855.41;1731294;82;21004;-40
2021/07/03 00:46:05;;;;;;;10.78;4.30;;;;;;;16.89;100.00;99861.77;1690213;82;21125;-40
2021/07/03 00:48:32;;;;;;;8.80;4.30;;;;;;;16.91;100.00;99861.22;1719820;81;21581;-40
2021/07/03 00:50:59;;;;;;;14.15;4.37;;;;;;;16.93;100.00;99838.93;1720575;81;21454;-40
2021/07/03 00:53:26;;;;;;;13.83;4.45;;;;;;;16.98;100.00;99839.96;1712401;82;20999;-40
2021/07/03 00:55:53;;;;;;;21.60;4.78;;;;;;;17.01;100.00;99828.06;1716995;81;20977;-40
2021/07/03 00:58:20;;;;;;;16.00;4.40;;;;;;;17.03;100.00;99830.12;1731778;82;21467;-40
2021/07/03 01:00:47;;;;;;;11.78;4.58;;;;;;;17.04;100.00;99829.19;1727276;81;21289;-40
2021/07/03 01:03:14;;;;;;;12.50;4.20;;;;;;;17.06;100.00;99832.59;1723385;82;20996;-40
2021/07/03 01:05:41;;;;;;;17.57;4.58;;;;;;;17.09;100.00;99831.11;1733005;82;20913;-40
2021/07/03 01:08:09;;;;;;;11.60;3.98;;;;;;;17.13;100.00;99833.92;1718577;81;21000;-40
2021/07/03 01:10:36;;;;;;;10.23;4.00;;;;;;;17.16;100.00;99832.45;1719341;82;21143;-40
2021/07/03 01:13:04;;;;;;;7.45;3.77;;;;;;;17.19;100.00;99827.52;1715305;82;20981;-41
2021/07/03 01:15:30;;;;;;;8.58;3.52;;;;;;;17.22;100.00;99828.17;1714141;82;21008;-40
2021/07/03 01:17:57;;;;;;;3.98;3.05;;;;;;;17.24;100.00;99833.33;1712106;82;22004;-40
2021/07/03 01:20:25;;;;;;;10.13;3.80;;;;;;;17.26;100.00;99834.53;1734550;82;21589;-40
2021/07/03 01:22:52;;;;;;;8.83;3.37;;;;;;;17.24;100.00;99839.87;1723612;81;21115;-40
2021/07/03 01:25:19;;;;;;;6.92;3.25;;;;;;;17.23;100.00;99840.31;1727801;82;20984;-40
2021/07/03 01:27:59;;;;;;;6.55;3.02;;;;;;;17.22;100.00;99833.88;1734994;82;20973;-40
2021/07/03 01:30:26;;;;;;;8.38;3.15;;;;;;;17.21;100.00;99828.27;1703550;83;20910;-39
2021/07/03 01:32:53;;;;;;;8.93;3.83;;;;;;;17.20;100.00;99832.64;1721829;81;21569;-40
2021/07/03 01:35:27;;;;;;;8.48;2.65;;;;;;;17.18;100.00;99838.43;1718065;82;21482;-40
2021/07/03 01:37:54;;;;;;;6.12;3.17;;;;;;;17.16;100.00;99836.37;1724557;81;20978;-40
2021/07/03 01:40:21;;;;;;;8.90;3.47;;;;;;;17.16;100.00;99836.37;1731164;82;20993;-39
2021/07/03 01:42:49;;;;;;;7.22;3.30;;;;;;;17.14;100.00;99844.77;1721822;82;21006;-39
2021/07/03 01:45:17;;;;;;;14.10;4.42;;;;;;;17.12;100.00;99835.30;1720783;82;21022;-39
2021/07/03 01:47:44;;;;;;;8.80;3.95;;;;;;;17.08;100.00;99835.96;1719440;82;21107;-39
2021/07/03 01:50:12;;;;;;;12.15;3.90;;;;;;;17.07;100.00;99840.81;1712854;82;21554;-39
2021/07/03 01:52:39;;;;;;;8.75;3.37;;;;;;;17.07;100.00;99841.64;1723588;82;20909;-40
2021/07/03 01:55:09;;;;;;;15.70;4.03;;;;;;;17.07;100.00;99842.95;1713573;82;21040;-39
2021/07/03 01:57:36;;;;;;;9.03;3.83;;;;;;;17.09;100.00;99845.48;1687302;82;20949;-40
2021/07/03 02:00:08;;;;;;;8.60;3.65;;;;;;;17.12;100.00;99845.31;1710854;82;21187;-39
2021/07/03 02:02:37;;;;;;;16.23;3.92;;;;;;;17.15;100.00;99845.14;1700248;81;22010;-39
2021/07/03 02:05:05;;;;;;;10.20;3.58;;;;;;;17.17;100.00;99840.67;1723108;82;20932;-39
2021/07/03 02:07:32;;;;;;;5.90;3.60;;;;;;;17.18;100.00;99838.43;1728362;81;21168;-39
2021/07/03 02:10:00;;;;;;;4.03;3.37;;;;;;;17.18;100.00;99839.73;1729774;82;21470;-39
2021/07/03 02:12:27;;;;;;;6.40;3.62;;;;;;;17.20;100.00;99838.36;1729449;81;21215;-40
2021/07/03 02:14:55;;;;;;;7.12;3.22;;;;;;;17.20;100.00;99844.89;1737468;81;21573;-40
2021/07/03 02:17:23;;;;;;;8.08;3.52;;;;;;;17.21;100.00;99838.25;1738089;82;21498;-40
2021/07/03 02:19:50;;;;;;;15.18;4.15;;;;;;;17.22;100.00;99833.41;1723944;82;20965;-40
2021/07/03 02:22:18;;;;;;;12.50;3.90;;;;;;;17.23;100.00;99839.01;1717157;82;21501;-41
2021/07/03 02:24:46;;;;;;;9.73;3.90;;;;;;;17.25;100.00;99842.86;1726636;82;21146;-40
2021/07/03 02:27:13;;;;;;;18.52;4.15;;;;;;;17.26;100.00;99842.38;1724805;82;20996;-41
2021/07/03 02:29:42;;;;;;;8.03;3.72;;;;;;;17.29;100.00;99851.36;1731256;81;20988;-39
2021/07/03 02:32:08;;;;;;;11.12;4.35;;;;;;;17.32;100.00;99850.73;1739376;81;21070;-39
2021/07/03 02:34:36;;;;;;;11.53;4.28;;;;;;;17.33;100.00;99845.05;1726646;81;21478;-41
2021/07/03 02:37:04;;;;;;;14.80;4.60;;;;;;;17.34;100.00;99848.05;1730091;81;21127;-41
2021/07/03 02:39:32;;;;;;;8.45;3.90;;;;;;;17.34;100.00;99850.17;1711232;81;20964;-40
2021/07/03 02:41:59;;;;;;;11.85;4.15;;;;;;;17.33;100.00;99845.05;1727615;82;21502;-40
2021/07/03 02:44:26;;;;;;;14.23;4.00;;;;;;;17.32;100.00;99848.59;1747548;82;20967;-40
2021/07/03 02:46:53;;;;;;;7.97;3.70;;;;;;;17.34;100.00;99848.05;1737717;82;20944;-40
2021/07/03 02:49:22;;;;;;;7.67;3.75;;;;;;;17.38;100.00;99848.24;1722446;82;21164;-40
2021/07/03 02:51:49;;;;;;;9.83;4.12;;;;;;;17.42;100.00;99849.75;1722397;82;20945;-41
2021/07/03 02:54:16;;;;;;;15.35;4.17;;;;;;;17.48;100.00;99849.39;1725406;81;21612;-40
2021/07/03 02:56:42;;;;;;;14.30;3.90;;;;;;;17.57;100.00;99854.57;1730866;81;21548;-39
2021/07/03 02:59:09;;;;;;;13.60;3.85;;;;;;;17.66;100.00;99848.80;1721423;81;20965;-39
2021/07/03 03:01:36;;;;;;;8.83;4.17;;;;;;;17.76;100.00;99848.28;1720076;82;21228;-40
2021/07/03 03:04:05;;;;;;;14.65;4.12;;;;;;;17.87;100.00;99846.34;1727579;81;21000;-40
2021/07/03 03:06:31;;;;;;;10.85;3.90;;;;;;;17.96;100.00;99852.34;1736091;81;21643;-41
2021/07/03 03:08:59;;;;;;;6.72;3.80;;;;;;;18.03;100.00;99849.75;1678592;83;20969;-40
2021/07/03 03:11:28;;;;;;;21.27;3.75;;;;;;;18.13;100.00;99847.44;1680367;83;20928;-40
2021/07/03 03:13:55;;;;;;;11.90;4.17;;;;;;;18.23;100.00;99847.28;1681127;83;21506;-40
2021/07/03 03:16:22;;;;;;;10.60;3.83;;;;;;;18.32;100.00;99844.58;1739609;81;20940;-40
2021/07/03 03:18:48;;;;;;;17.32;4.35;;;;;;;18.45;100.00;99847.74;1729880;81;20983;-40
2021/07/03 03:21:15;;;;;;;9.78;3.90;;;;;;;18.56;100.00;99845.29;1730882;82;20893;-40
2021/07/03 03:23:43;;;;;;;11.63;4.03;;;;;;;18.73;100.00;99846.03;1729061;82;21472;-40
2021/07/03 03:26:12;;;;;;;11.60;3.42;;;;;;;18.88;100.00;99845.09;1727194;81;21113;-41
2021/07/03 03:28:40;;;;;;;20.72;3.65;;;;;;;19.01;100.00;99840.39;1727145;82;21009;-40
2021/07/03 03:31:07;;;;;;;18.75;3.72;;;;;;;19.11;100.00;99838.88;1718740;82;21538;-40
2021/07/03 03:33:36;;;;;;;15.05;3.95;;;;;;;19.18;100.00;99841.47;1676541;85;20984;-40
2021/07/03 03:36:03;;;;;;;8.23;4.33;;;;;;;19.24;100.00;99842.39;1716684;82;20993;-40
2021/07/03 03:38:31;;;;;;;8.30;3.33;;;;;;;19.26;100.00;99843.61;1729144;82;21117;-40
2021/07/03 03:40:59;;;;;;;14.20;3.47;;;;;;;19.27;100.00;99837.42;1724664;82;20972;-40
2021/07/03 03:43:26;;;;;;;7.05;3.10;;;;;;;19.28;100.00;99839.56;1709086;82;22558;-40
2021/07/03 03:45:52;;;;;;;8.83;3.40;;;;;;;19.31;100.00;99840.67;1721038;82;20945;-40
2021/07/03 03:48:19;;;;;;;13.18;4.22;;;;;;;19.39;100.00;99839.72;1705940;82;20934;-42
2021/07/03 03:50:47;;;;;;;20.57;3.95;;;;;;;19.47;100.00;99853.17;1681201;82;21163;-40
2021/07/03 03:53:14;;;;;;;22.87;4.20;;;;;;;19.52;100.00;99841.89;1677826;85;21059;-40
2021/07/03 03:55:42;;;;;;;13.00;4.20;;;;;;;19.51;100.00;99832.83;1685975;84;21033;-40
2021/07/03 03:58:09;;;;;;;16.95;4.17;;;;;;;19.42;100.00;99848.70;1693069;82;20953;-41
2021/07/03 04:00:36;;;;;;;14.70;3.95;;;;;;;19.40;100.00;99838.78;1721862;82;20961;-40
2021/07/03 04:03:03;;;;;;;13.15;3.62;;;;;;;19.33;100.00;99848.83;1722298;82;21094;-40
2021/07/03 04:05:31;;;;;;;22.55;5.12;;;;;;;19.30;100.00;99837.22;1713663;82;20969;-40
2021/07/03 04:07:58;;;;;;;37.67;6.67;;;;;;;19.29;100.00;99834.68;1706145;82;21004;-40
2021/07/03 04:10:24;;;;;;;29.45;5.62;;;;;;;19.32;100.00;99833.16;1684571;82;21011;-40
2021/07/03 04:12:51;;;;;;;20.57;5.08;;;;;;;19.35;100.00;99835.62;1720509;82;21028;-40
2021/07/03 04:15:18;;;;;;;23.22;4.58;;;;;;;19.44;100.00;99835.00;1713749;82;21164;-40
2021/07/03 04:17:44;;;;;;;18.95;4.58;;;;;;;19.50;100.00;99841.64;1728255;82;20934;-40
2021/07/03 04:20:11;;;;;;;18.85;4.87;;;;;;;19.52;100.00;99844.52;1734346;82;21506;-40
2021/07/03 04:22:38;;;;;;;21.97;4.92;;;;;;;19.52;100.00;99850.25;1734471;82;20965;-41
2021/07/03 04:25:08;;;;;;;14.98;4.85;;;;;;;19.53;100.00;99848.83;1735730;82;20984;-40
2021/07/03 04:27:36;;;;;;;25.17;5.37;;;;;;;19.57;100.00;99858.66;1708199;82;21795;-41
2021/07/03 04:30:05;;;;;;;20.25;4.60;;;;;;;19.55;100.00;99852.67;1732878;82;20913;-41
2021/07/03 04:32:31;;;;;;;14.10;4.90;;;;;;;19.49;100.00;99836.02;1720932;82;20944;-40
2021/07/03 04:34:59;;;;;;;12.68;4.28;;;;;;;19.36;100.00;99847.31;1700021;84;20993;-40
2021/07/03 04:37:25;;;;;;;11.33;4.10;;;;;;;19.26;100.00;99848.00;1725053;82;20954;-40
2021/07/03 04:39:52;;;;;;;7.83;4.15;;;;;;;19.19;100.00;99852.34;1734227;82;21577;-40
2021/07/03 04:42:18;;;;;;;10.55;4.87;;;;;;;19.15;100.00;99860.03;1713115;82;20929;-40
2021/07/03 04:44:44;;;;;;;12.50;4.85;;;;;;;19.13;100.00;99868.93;1733281;82;20937;-40
2021/07/03 04:47:11;;;;;;;16.87;5.40;;;;;;;19.13;100.00;99880.73;1707042;82;21011;-40
2021/07/03 04:49:38;;;;;;;13.48;4.47;;;;;;;19.11;100.00;99879.53;1715515;82;20925;-40
2021/07/03 04:52:06;;;;;;;8.00;4.58;;;;;;;19.09;100.00;99856.02;1713453;82;21493;-40
2021/07/03 04:54:33;;;;;;;7.30;4.10;;;;;;;19.12;100.00;99852.37;1715928;81;21001;-40
2021/07/03 04:57:08;;;;;;;13.38;4.65;;;;;;;19.16;100.00;99860.41;1716708;82;20964;-40
2021/07/03 04:59:36;;;;;;;10.80;5.22;;;;;;;19.22;100.00;99853.45;1727767;82;20909;-40
2021/07/03 05:02:04;;;;;;;10.28;5.08;;;;;;;19.30;100.00;99862.59;1717441;82;21439;-39
2021/07/03 05:04:31;;;;;;;12.20;4.65;;;;;;;19.37;100.00;99866.53;1734524;82;21121;-40
2021/07/03 05:06:57;;;;;;;8.78;4.58;;;;;;;19.46;100.00;99868.55;1736910;82;21000;-40
2021/07/03 05:09:24;;;;;;;11.55;4.55;;;;;;;19.57;100.00;99861.74;1715216;82;21083;-40
2021/07/03 05:11:52;;;;;;;11.00;4.92;;;;;;;19.65;100.00;99866.03;1727499;82;20962;-40
2021/07/03 05:14:20;;;;;;;8.83;4.70;;;;;;;19.70;100.00;99875.75;1712670;83;21004;-40
2021/07/03 05:16:46;;;;;;;11.95;4.83;;;;;;;19.80;100.00;99870.73;1719250;82;21151;-40
2021/07/03 05:19:14;;;;;;;10.78;5.15;;;;;;;19.89;100.00;99877.99;1716533;82;20937;-39
2021/07/03 05:21:41;;;;;;;12.10;4.50;;;;;;;19.98;100.00;99870.49;1731165;82;20973;-40
2021/07/03 05:24:08;;;;;;;16.40;4.62;;;;;;;20.06;100.00;99865.06;1724318;82;20987;-40
2021/07/03 05:26:34;;;;;;;11.20;5.00;;;;;;;20.22;100.00;99867.97;1724695;82;20980;-40
2021/07/03 05:29:01;;;;;;;10.90;4.90;;;;;;;20.35;100.00;99867.52;1722099;82;21302;-40
2021/07/03 05:31:28;;;;;;;7.67;4.45;;;;;;;20.52;100.00;99868.11;1705047;82;20980;-39
2021/07/03 05:33:54;;;;;;;10.63;4.55;;;;;;;20.70;100.00;99862.52;1742328;82;20996;-40
2021/07/03 05:36:21;;;;;;;4.65;4.25;;;;;;;20.80;100.00;99868.83;1728214;82;20937;-40
2021/07/03 05:38:48;;;;;;;9.58;4.95;;;;;;;20.82;100.00;99877.45;1714016;82;21020;-40
2021/07/03 05:41:16;;;;;;;8.03;4.40;;;;;;;20.85;100.00;99870.69;1718576;82;21775;-41
2021/07/03 05:43:42;;;;;;;11.18;4.87;;;;;;;20.91;100.00;99862.81;1722101;82;20953;-40
2021/07/03 05:46:09;;;;;;;7.75;5.33;;;;;;;21.01;100.00;99874.84;1713272;82;21561;-40
2021/07/03 05:48:36;;;;;;;11.30;4.37;;;;;;;21.15;100.00;99876.02;1727780;82;21506;-41
2021/07/03 05:51:03;;;;;;;19.35;4.90;;;;;;;21.32;100.00;99869.52;1729421;82;21409;-40
2021/07/03 05:53:29;;;;;;;13.88;4.95;;;;;;;21.42;100.00;99879.36;1708605;82;21140;-39
2021/07/03 05:55:56;;;;;;;10.48;4.60;;;;;;;21.45;99.94;99876.04;1707915;82;20949;-40
2021/07/03 05:58:22;;;;;;;8.70;4.53;;;;;;;21.57;99.66;99878.25;1717222;82;21626;-39
2021/07/03 06:00:49;;;;;;;11.20;5.83;;;;;;;21.65;98.74;99879.03;1716271;82;21032;-39
2021/07/03 06:03:15;;;;;;;14.80;5.83;;;;;;;21.72;98.47;99880.25;1659892;85;20907;-39
2021/07/03 06:05:41;;;;;;;12.23;5.37;;;;;;;21.80;98.18;99883.13;1734609;82;21756;-40
2021/07/03 06:08:08;;;;;;;18.07;5.47;;;;;;;21.92;98.28;99876.59;1686487;84;21108;-39
2021/07/03 06:10:34;;;;;;;12.55;5.58;;;;;;;22.06;97.82;99871.10;1717231;82;20987;-39
2021/07/03 06:13:01;;;;;;;9.13;5.28;;;;;;;22.21;97.50;99863.00;1719469;82;20909;-39
2021/07/03 06:15:29;;;;;;;9.70;5.55;;;;;;;22.35;96.62;99869.84;1723808;82;21019;-39
2021/07/03 06:17:55;;;;;;;13.70;5.85;;;;;;;22.55;96.80;99872.26;1725091;82;21048;-39
2021/07/03 06:20:22;;;;;;;12.30;5.25;;;;;;;22.68;95.98;99866.39;1713918;82;20996;-39
2021/07/03 06:22:49;;;;;;;12.73;5.55;;;;;;;22.87;95.33;99866.73;1713404;82;21557;-40
2021/07/03 06:25:16;;;;;;;13.22;6.08;;;;;;;22.97;94.09;99865.02;1716816;82;21481;-40
2021/07/03 06:27:42;;;;;;;12.68;5.45;;;;;;;23.04;93.34;99861.41;1720293;82;20902;-40
2021/07/03 06:30:10;;;;;;;11.53;5.28;;;;;;;23.03;92.88;99861.05;1737085;82;21108;-39
2021/07/03 06:32:37;;;;;;;13.80;5.62;;;;;;;23.00;93.04;99854.71;1731084;82;20979;-39
2021/07/03 06:35:05;;;;;;;12.70;5.03;;;;;;;22.96;92.73;99853.64;1713446;82;20894;-39
2021/07/03 06:37:32;;;;;;;10.98;5.15;;;;;;;22.97;92.33;99855.78;1714012;82;20988;-40
2021/07/03 06:39:58;;;;;;;16.37;5.33;;;;;;;22.94;92.13;99848.97;1721844;82;21521;-40
2021/07/03 06:42:25;;;;;;;15.55;5.22;;;;;;;22.99;92.51;99855.67;1696810;83;21633;-40
2021/07/03 06:44:52;;;;;;;10.45;5.58;;;;;;;23.17;92.33;99857.30;1716308;82;21528;-40
2021/07/03 06:47:19;;;;;;;11.78;5.72;;;;;;;23.44;91.62;99858.67;1713111;83;20919;-40
2021/07/03 06:49:45;;;;;;;7.35;4.87;;;;;;;23.71;90.77;99860.00;1713316;82;20927;-40
2021/07/03 06:52:11;;;;;;;16.00;5.40;;;;;;;24.01;90.10;99860.58;1716538;82;20985;-40
2021/07/03 06:54:39;;;;;;;7.17;5.37;;;;;;;24.28;88.86;99856.55;1732911;82;21731;-40
2021/07/03 06:57:08;;;;;;;12.75;5.28;;;;;;;24.35;86.97;99851.08;1681707;84;20988;-40
2021/07/03 06:59:34;;;;;;;11.30;4.58;;;;;;;24.35;85.02;99850.25;1726102;82;21509;-40
2021/07/03 07:02:00;;;;;;;10.75;4.70;;;;;;;24.34;83.62;99852.55;1722486;82;21633;-40
2021/07/03 07:04:27;;;;;;;17.90;4.60;;;;;;;24.50;83.48;99855.55;1735325;81;21507;-40
2021/07/03 07:06:55;;;;;;;10.78;5.40;;;;;;;24.56;81.53;99847.55;1725747;82;21795;-40
2021/07/03 07:09:25;;;;;;;14.47;5.05;;;;;;;24.64;79.77;99853.49;1715521;82;21057;-41
2021/07/03 07:11:53;;;;;;;20.70;5.35;;;;;;;24.78;78.66;99849.66;1714222;82;21688;-40
2021/07/03 07:14:20;;;;;;;8.80;4.62;;;;;;;24.91;78.14;99848.09;1703185;83;20965;-40
2021/07/03 07:16:48;;;;;;;9.40;4.55;;;;;;;25.09;77.61;99857.52;1717827;82;20999;-40
2021/07/03 07:19:15;;;;;;;16.20;4.35;;;;;;;25.31;76.55;99858.23;1726116;82;21184;-40
2021/07/03 07:21:41;;;;;;;13.10;4.67;;;;;;;25.61;75.82;99862.59;1722706;82;20964;-40
2021/07/03 07:24:08;;;;;;;10.03;4.20;;;;;;;25.76;74.70;99861.67;1704438;84;21498;-40
2021/07/03 07:26:35;;;;;;;11.40;5.45;;;;;;;25.83;73.73;99861.44;1738089;82;21518;-39
2021/07/03 07:29:01;;;;;;;11.38;5.15;;;;;;;25.87;71.31;99868.63;1717073;82;21707;-39
2021/07/03 07:31:28;;;;;;;12.13;5.33;;;;;;;25.95;70.65;99863.95;1697375;83;21303;-39
2021/07/03 07:33:54;;;;;;;11.22;4.95;;;;;;;25.89;69.58;99871.13;1721974;81;20962;-40
2021/07/03 07:36:22;;;;;;;13.45;6.42;;;;;;;25.77;69.53;99876.59;1723623;82;21004;-41
2021/07/03 07:38:49;;;;;;;21.55;5.85;;;;;;;25.64;69.95;99875.56;1712707;82;20984;-40
2021/07/03 07:41:16;;;;;;;15.58;5.35;;;;;;;25.56;70.89;99878.55;1709811;82;21032;-40
2021/07/03 07:43:44;;;;;;;10.85;5.85;;;;;;;25.51;71.22;99875.84;1720004;82;21104;-40
2021/07/03 07:46:10;;;;;;;17.45;5.90;;;;;;;25.53;72.22;99873.89;1713147;82;20944;-41
2021/07/03 07:48:38;;;;;;;9.80;5.15;;;;;;;25.56;71.47;99883.38;1693827;82;21494;-40
2021/07/03 07:51:05;;;;;;;19.60;5.80;;;;;;;25.68;71.64;99874.80;1717041;82;21415;-40
2021/07/03 07:53:32;;;;;;;10.68;6.10;;;;;;;25.79;71.08;99879.12;1740978;81;22068;-40
2021/07/03 07:55:59;;;;;;;12.30;6.05;;;;;;;25.99;71.12;99877.27;1719520;82;21730;-40
2021/07/03 07:58:26;;;;;;;8.50;5.83;;;;;;;26.23;70.28;99880.77;1715535;82;20905;-40
2021/07/03 08:00:55;;;;;;;13.30;6.42;;;;;;;26.58;68.93;99880.25;1718264;82;20969;-40
2021/07/03 08:03:21;;;;;;;17.20;6.30;;;;;;;26.86;67.25;99879.77;1712522;82;20992;-40
2021/07/03 08:05:48;;;;;;;15.10;6.50;;;;;;;26.95;67.38;99884.68;1711838;82;20976;-40
2021/07/03 08:08:14;;;;;;;13.43;6.62;;;;;;;27.05;65.40;99884.15;1700011;83;21099;-42
2021/07/03 08:10:42;;;;;;;15.40;7.08;;;;;;;27.10;65.48;99884.53;1686530;84;21020;-41
2021/07/03 08:13:08;;;;;;;13.53;7.08;;;;;;;27.15;65.34;99889.37;1731469;82;21513;-40
2021/07/03 08:15:37;;;;;;;12.05;6.30;;;;;;;27.19;64.59;99886.78;1718660;82;20961;-40
2021/07/03 08:18:04;;;;;;;15.10;7.83;;;;;;;27.07;63.06;99878.67;1721251;82;20976;-40
2021/07/03 08:20:31;;;;;;;13.35;7.00;;;;;;;27.04;63.84;99876.32;1729854;82;21101;-40
2021/07/03 08:22:57;;;;;;;14.95;6.80;;;;;;;27.20;64.46;99867.20;1728954;81;20889;-40
2021/07/03 08:25:24;;;;;;;17.45;7.37;;;;;;;27.54;63.96;99867.86;1714706;82;20941;-40
2021/07/03 08:27:52;;;;;;;21.42;6.72;;;;;;;27.75;61.34;99868.03;1722504;82;21015;-40
2021/07/03 08:30:19;;;;;;;13.58;6.37;;;;;;;27.76;60.60;99867.03;1736105;82;20961;-40
2021/07/03 08:32:46;;;;;;;20.82;6.78;;;;;;;27.83;61.89;99864.09;1702368;84;21108;-40
2021/07/03 08:35:13;;;;;;;10.08;6.45;;;;;;;28.11;62.28;99870.58;1722661;82;21000;-40
2021/07/03 08:37:42;;;;;;;15.30;6.60;;;;;;;28.32;61.58;99862.75;1693771;82;20980;-40
2021/07/03 08:40:10;;;;;;;15.45;6.42;;;;;;;28.53;61.00;99863.66;1712709;83;21023;-40
2021/07/03 08:42:36;;;;;;;12.43;5.92;;;;;;;28.80;59.42;99858.31;1651441;85;21013;-40
2021/07/03 08:45:04;;;;;;;13.72;6.42;;;;;;;29.01;58.75;99857.03;1719124;82;21035;-40
2021/07/03 08:47:31;;;;;;;19.95;6.80;;;;;;;29.20;57.90;99851.89;1681705;84;20890;-41
2021/07/03 08:50:00;;;;;;;17.15;7.20;;;;;;;29.32;57.77;99855.08;1723600;82;20972;-43
2021/07/03 08:52:27;;;;;;;15.90;6.15;;;;;;;29.46;57.89;99863.78;1736882;82;20976;-41
2021/07/03 08:55:21;;;;;;;14.75;5.75;;;;;;;29.62;56.30;99855.43;1713030;82;20933;-40
2021/07/03 08:57:51;;;;;;;9.40;5.97;;;;;;;29.80;57.29;99848.58;1692434;83;21525;-41
2021/07/03 09:00:23;;;;;;;13.90;6.42;;;;;;;30.08;55.99;99857.06;1736745;82;20980;-43
2021/07/03 09:02:49;;;;;;;11.50;6.28;;;;;;;30.20;55.35;99854.05;1742483;82;21254;-42
2021/07/03 09:05:23;;;;;;;12.88;6.10;;;;;;;30.17;53.45;99853.03;1733493;82;21601;-41
2021/07/03 09:07:51;;;;;;;13.48;6.45;;;;;;;30.06;53.49;99848.89;1713014;83;21537;-41
2021/07/03 09:10:22;;;;;;;11.00;6.37;;;;;;;29.87;54.29;99847.41;1712881;83;21062;-41
2021/07/03 09:12:51;;;;;;;12.28;6.15;;;;;;;29.71;54.31;99842.93;1735523;82;21557;-41
2021/07/03 09:15:20;;;;;;;17.90;6.42;;;;;;;29.64;56.16;99850.77;1716002;82;21060;-42
2021/07/03 09:17:58;;;;;;;17.05;6.80;;;;;;;29.81;58.08;99859.60;1711049;82;21012;-41
2021/07/03 09:20:37;;;;;;;14.10;6.22;;;;;;;30.06;55.73;99865.73;1727454;81;20992;-42
2021/07/03 09:23:13;;;;;;;13.32;6.25;;;;;;;30.28;55.73;99863.84;1721834;82;21148;-40
2021/07/03 09:25:48;;;;;;;19.42;7.25;;;;;;;30.53;55.41;99867.27;1689117;83;21013;-41
2021/07/03 09:28:20;;;;;;;9.78;7.03;;;;;;;30.77;55.17;99864.17;1659824;85;20946;-41
2021/07/03 09:30:52;;;;;;;16.12;7.67;;;;;;;30.95;53.32;99858.56;1694411;83;21004;-42
2021/07/03 09:33:24;;;;;;;16.73;7.22;;;;;;;30.98;53.10;99852.86;1734030;82;20984;-41
2021/07/03 09:35:58;;;;;;;15.03;7.53;;;;;;;31.05;54.26;99851.13;1713166;82;21482;-42
2021/07/03 09:38:31;;;;;;;21.00;7.33;;;;;;;30.97;50.83;99851.20;1728294;82;20973;-41
2021/07/03 09:43:10;;;;;;;15.00;7.45;;;;;;;30.89;54.69;99841.39;1795300;79;22434;-41
2021/07/03 09:45:40;;;;;;;18.25;7.17;;;;;;;30.91;52.40;99843.90;1757929;80;20884;-41
2021/07/03 09:48:09;;;;;;;18.05;7.87;;;;;;;30.95;52.71;99844.71;1761603;80;21518;-41
2021/07/03 09:50:39;;;;;;;13.45;7.08;;;;;;;31.05;51.31;99840.97;1762430;80;21471;-41
2021/07/03 09:53:06;;;;;;;22.62;7.62;;;;;;;31.02;52.89;99846.67;1761986;80;20991;-41
2021/07/03 09:55:35;;;;;;;15.05;7.15;;;;;;;31.03;54.34;99841.13;1761131;80;21022;-42
2021/07/03 09:58:03;;;;;;;14.07;7.22;;;;;;;31.25;55.07;99842.19;1754692;80;20958;-41
2021/07/03 10:00:30;;;;;;;14.75;7.62;;;;;;;31.53;52.98;99843.45;1758169;80;21096;-40
2021/07/03 10:02:57;;;;;;;12.93;7.45;;;;;;;31.73;54.02;99837.11;1768815;80;21042;-41
2021/07/03 10:05:26;;;;;;;15.60;7.47;;;;;;;32.01;53.54;99835.17;1762828;80;21411;-40
2021/07/03 10:08:01;;;;;;;16.75;7.87;;;;;;;32.19;52.96;99830.78;1767508;80;20939;-41
2021/07/03 10:10:28;;;;;;;18.62;8.15;;;;;;;32.24;49.80;99828.37;1737716;80;21592;-43
2021/07/03 10:13:17;;;;;;;21.65;8.25;;;;;;;32.10;50.56;99835.39;1772956;80;20979;-40
2021/07/03 10:15:43;;;;;;;11.97;7.92;;;;;;;31.81;50.23;99822.33;1788765;80;20884;-41
2021/07/03 10:18:21;;;;;;;15.60;8.45;;;;;;;31.46;49.18;99821.98;1771247;80;20935;-40
2021/07/03 10:20:49;;;;;;;15.25;9.35;;;;;;;30.94;51.51;99826.18;1733029;80;20967;-43
2021/07/03 10:23:16;;;;;;;23.42;9.50;;;;;;;30.63;53.20;99829.19;1759190;80;20928;-41
2021/07/03 10:25:45;;;;;;;17.80;9.10;;;;;;;30.78;51.79;99829.78;1728570;81;22328;-41
2021/07/03 10:28:13;;;;;;;17.15;10.35;;;;;;;30.93;51.51;99827.19;1723119;82;20995;-42
2021/07/03 10:30:43;;;;;;;22.93;11.22;;;;;;;30.90;50.69;99828.88;1726911;82;20990;-41
2021/07/03 10:33:19;;;;;;;19.80;10.93;;;;;;;30.81;50.66;99816.08;1730217;82;21588;-41
2021/07/03 10:35:54;;;;;;;16.12;9.93;;;;;;;31.01;50.15;99809.76;1719483;82;20846;-41
2021/07/03 10:38:26;;;;;;;;;;;;;;;31.24;50.93;99813.80;1720320;82;22341;-41
2021/07/03 10:40:55;;;;;;;18.82;9.63;;;;;;;31.33;50.53;99816.41;1726595;82;20148;-41
2021/07/03 10:43:22;;;;;;;19.40;9.53;;;;;;;31.38;51.69;99811.34;1704668;82;21510;-42
2021/07/03 10:45:54;;;;;;;20.80;10.28;;;;;;;31.32;49.55;99809.39;1720890;82;21000;-41
2021/07/03 10:48:25;;;;;;;16.85;9.38;;;;;;;31.45;48.99;99804.28;1717763;82;21023;-41
2021/07/03 10:50:54;;;;;;;20.12;9.05;;;;;;;31.50;50.41;99801.05;1704309;82;21144;-40
2021/07/03 10:53:29;;;;;;;16.85;8.03;;;;;;;31.77;50.55;99800.13;1693256;84;20990;-40
2021/07/03 10:56:12;;;;;;;16.93;7.28;;;;;;;32.07;48.87;99792.95;1701893;82;21030;-40
2021/07/03 10:58:41;;;;;;;12.88;7.25;;;;;;;32.09;46.81;99786.91;1727258;82;21578;-42
2021/07/03 11:01:11;;;;;;;20.27;6.87;;;;;;;32.00;48.14;99783.17;1731465;82;21000;-41
2021/07/03 11:03:48;;;;;;;14.47;6.80;;;;;;;31.98;46.25;99774.01;1711602;82;21146;-41
2021/07/03 11:06:20;;;;;;;14.75;6.97;;;;;;;31.86;47.14;99775.47;1710135;82;21046;-40
2021/07/03 11:08:46;;;;;;;11.57;5.92;;;;;;;31.85;49.23;99768.46;1709630;82;21036;-42
2021/07/03 11:11:15;;;;;;;15.55;5.90;;;;;;;32.09;49.10;99775.39;1639968;86;21070;-42
2021/07/03 11:13:44;;;;;;;8.85;5.20;;;;;;;32.15;48.35;99763.92;1713569;82;20969;-42
2021/07/03 11:16:13;;;;;;;9.05;4.80;;;;;;;32.21;45.36;99753.80;1704898;82;21147;-42
2021/07/03 11:18:41;;;;;;;11.15;5.05;;;;;;;32.20;47.51;99758.84;1709592;82;20954;-43
2021/07/03 11:21:10;;;;;;;11.03;5.05;;;;;;;32.25;45.99;99760.96;1713022;82;20940;-42
2021/07/03 11:23:36;;;;;;;14.40;4.58;;;;;;;32.38;46.52;99761.12;1714831;82;20948;-42
2021/07/03 11:26:10;;;;;;;10.53;4.70;;;;;;;32.48;46.04;99768.05;1708206;82;21044;-40
2021/07/03 11:28:36;;;;;;;9.10;4.65;;;;;;;32.64;46.81;99773.16;1707200;80;21850;-40
2021/07/03 11:31:03;;;;;;;10.68;5.40;;;;;;;32.58;46.33;99773.92;1704405;82;21417;-39